createdAt,value
2019-05-15T00:00:41.959Z,2.07
2019-05-15T00:03:10.955Z,2.20
2019-05-15T00:05:39.844Z,2.60
2019-05-15T00:08:09.833Z,1.77
2019-05-15T00:10:39.585Z,2.30
2019-05-15T00:13:09.688Z,2.23
2019-05-15T00:15:40.231Z,2.23
2019-05-15T00:18:10.036Z,2.43
2019-05-15T00:20:39.604Z,2.00
2019-05-15T00:23:08.804Z,2.63
2019-05-15T00:25:39.338Z,1.97
2019-05-15T00:28:09.557Z,2.40
2019-05-15T00:30:39.401Z,2.53
2019-05-15T00:33:09.423Z,2.43
2019-05-15T00:35:39.597Z,2.97
2019-05-15T00:38:09.545Z,2.80
2019-05-15T00:40:39.643Z,2.80
2019-05-15T00:43:09.486Z,2.10
2019-05-15T00:45:39.298Z,2.37
2019-05-15T00:48:08.879Z,2.77
2019-05-15T00:50:39.550Z,2.60
2019-05-15T00:53:09.050Z,2.50
2019-05-15T00:55:40.705Z,2.80
2019-05-15T00:58:09.174Z,2.83
2019-05-15T01:00:43.943Z,2.80
2019-05-15T01:03:22.143Z,2.70
2019-05-15T01:05:54.832Z,2.50
2019-05-15T01:08:23.246Z,2.57
2019-05-15T01:10:51.689Z,3.40
2019-05-15T01:13:20.187Z,3.00
2019-05-15T01:15:49.116Z,2.73
2019-05-15T01:18:18.726Z,2.50
2019-05-15T01:20:49.401Z,3.10
2019-05-15T01:23:18.763Z,3.23
2019-05-15T01:25:48.193Z,2.73
2019-05-15T01:28:18.404Z,3.17
2019-05-15T01:30:48.705Z,3.00
2019-05-15T01:33:19.035Z,2.90
2019-05-15T01:35:48.775Z,3.10
2019-05-15T01:38:18.673Z,4.00
2019-05-15T01:40:48.547Z,3.47
2019-05-15T01:43:18.744Z,3.30
2019-05-15T01:45:48.281Z,3.30
2019-05-15T01:48:19.005Z,4.13
2019-05-15T01:50:49.294Z,3.10
2019-05-15T01:53:18.655Z,2.97
2019-05-15T01:55:48.294Z,2.77
2019-05-15T01:58:18.707Z,3.50
2019-05-15T02:00:48.375Z,3.10
2019-05-15T02:03:18.347Z,3.10
2019-05-15T02:05:48.098Z,3.23
2019-05-15T02:08:19.142Z,3.13
2019-05-15T02:10:49.330Z,4.10
2019-05-15T02:13:18.659Z,3.33
2019-05-15T02:15:48.301Z,3.70
2019-05-15T02:18:19.123Z,3.87
2019-05-15T02:20:49.345Z,4.00
2019-05-15T02:23:18.913Z,3.50
2019-05-15T02:25:48.099Z,3.80
2019-05-15T02:28:18.386Z,3.60
2019-05-15T02:30:50.414Z,3.53
2019-05-15T02:33:18.936Z,3.43
2019-05-15T02:35:50.285Z,3.40
2019-05-15T02:38:19.919Z,3.20
2019-05-15T02:40:49.348Z,3.63
2019-05-15T02:43:19.038Z,3.80
2019-05-15T02:45:50.771Z,3.50
2019-05-15T02:48:19.936Z,3.83
2019-05-15T02:50:50.136Z,3.67
2019-05-15T02:53:19.294Z,3.40
2019-05-15T02:55:49.532Z,3.20
2019-05-15T02:58:21.142Z,3.50
2019-05-15T03:00:53.125Z,3.13
2019-05-15T03:03:20.635Z,3.50
2019-05-15T03:05:49.807Z,3.50
2019-05-15T03:08:19.590Z,3.57
2019-05-15T03:10:49.616Z,3.73
2019-05-15T03:13:19.423Z,3.23
2019-05-15T03:15:48.915Z,3.33
2019-05-15T03:18:19.454Z,3.67
2019-05-15T03:20:50.154Z,3.40
2019-05-15T03:23:19.783Z,3.40
2019-05-15T03:25:49.021Z,3.43
2019-05-15T03:28:19.105Z,3.50
2019-05-15T03:31:15.720Z,3.90
2019-05-15T03:33:27.198Z,3.77
2019-05-15T03:35:53.677Z,3.00
2019-05-15T03:38:19.357Z,4.07
2019-05-15T03:40:49.767Z,3.33
2019-05-15T03:43:18.725Z,3.33
2019-05-15T03:45:49.370Z,3.60
2019-05-15T03:48:19.695Z,3.43
2019-05-15T03:50:48.915Z,3.93
2019-05-15T03:53:19.192Z,4.00
2019-05-15T03:55:48.987Z,3.80
2019-05-15T03:58:21.454Z,4.30
2019-05-15T04:00:50.132Z,4.00
2019-05-15T04:03:20.199Z,4.20
2019-05-15T04:05:49.451Z,3.97
2019-05-15T04:08:19.446Z,3.17
2019-05-15T04:10:48.802Z,3.70
2019-05-15T04:13:19.458Z,3.60
2019-05-15T04:15:50.182Z,4.80
2019-05-15T04:18:19.914Z,4.23
2019-05-15T04:20:49.374Z,3.40
2019-05-15T04:23:22.428Z,4.60
2019-05-15T04:25:54.351Z,3.73
2019-05-15T04:28:22.840Z,4.50
2019-05-15T04:30:51.294Z,3.53
2019-05-15T04:33:20.026Z,3.93
2019-05-15T04:35:49.823Z,3.70
2019-05-15T04:38:19.595Z,4.03
2019-05-15T04:40:50.017Z,4.03
2019-05-15T04:43:19.414Z,3.83
2019-05-15T04:45:49.758Z,3.53
2019-05-15T04:48:20.034Z,3.77
2019-05-15T04:50:49.679Z,3.80
2019-05-15T04:53:19.388Z,3.60
2019-05-15T04:55:49.265Z,3.60
2019-05-15T04:58:20.828Z,4.20
2019-05-15T05:00:52.256Z,4.80
2019-05-15T05:03:21.824Z,4.33
2019-05-15T05:05:51.695Z,4.23
2019-05-15T05:08:21.382Z,4.47
2019-05-15T05:10:51.365Z,4.37
2019-05-15T05:13:20.532Z,4.03
2019-05-15T05:15:51.398Z,4.20
2019-05-15T05:18:21.001Z,4.37
2019-05-15T05:20:50.002Z,5.33
2019-05-15T05:23:19.447Z,4.07
2019-05-15T05:25:49.447Z,4.63
2019-05-15T05:28:19.436Z,4.10
2019-05-15T05:30:49.253Z,4.17
2019-05-15T05:33:19.185Z,3.87
2019-05-15T05:35:48.791Z,4.30
2019-05-15T05:38:19.535Z,4.50
2019-05-15T05:40:50.275Z,3.70
2019-05-15T05:43:20.563Z,4.53
2019-05-15T05:45:49.617Z,4.27
2019-05-15T05:48:19.881Z,3.70
2019-05-15T05:50:49.525Z,4.50
2019-05-15T05:53:21.371Z,4.60
2019-05-15T05:55:53.138Z,4.03
2019-05-15T05:58:21.078Z,4.97
2019-05-15T06:00:51.312Z,3.93
2019-05-15T06:03:20.189Z,4.50
2019-05-15T06:05:49.726Z,5.53
2019-05-15T06:08:20.131Z,4.63
2019-05-15T06:10:50.059Z,4.50
2019-05-15T06:13:19.748Z,4.10
2019-05-15T06:15:49.102Z,4.30
2019-05-15T06:18:19.523Z,4.83
2019-05-15T06:20:50.208Z,4.60
2019-05-15T06:23:24.341Z,5.47
2019-05-15T06:25:51.268Z,5.27
2019-05-15T06:28:20.545Z,4.80
2019-05-15T06:30:50.175Z,4.67
2019-05-15T06:33:19.273Z,5.10
2019-05-15T06:35:49.071Z,5.83
2019-05-15T06:38:19.858Z,5.83
2019-05-15T06:40:50.491Z,5.87
2019-05-15T06:43:20.157Z,5.90
2019-05-15T06:45:49.987Z,5.93
2019-05-15T06:48:19.596Z,5.83
2019-05-15T06:50:49.283Z,5.50
2019-05-15T06:53:19.613Z,6.40
2019-05-15T06:55:49.987Z,5.80
2019-05-15T06:58:19.783Z,6.33
2019-05-15T07:00:49.678Z,6.70
2019-05-15T07:03:25.172Z,6.60
2019-05-15T07:05:51.191Z,7.00
2019-05-15T07:08:20.860Z,6.83
2019-05-15T07:10:49.932Z,6.60
2019-05-15T07:13:18.943Z,7.10
2019-05-15T07:15:49.950Z,6.20
2019-05-15T07:18:20.164Z,6.20
2019-05-15T07:20:50.168Z,6.83
2019-05-15T07:23:19.922Z,6.07
2019-05-15T07:25:50.330Z,5.93
2019-05-15T07:28:19.445Z,6.70
2019-05-15T07:30:49.670Z,6.47
2019-05-15T07:33:34.326Z,6.57
2019-05-15T07:35:49.755Z,6.70
2019-05-15T07:38:20.126Z,6.67
2019-05-15T07:40:56.984Z,6.60
2019-05-15T07:43:19.664Z,7.17
2019-05-15T07:45:54.376Z,6.17
2019-05-15T07:48:19.139Z,6.67
2019-05-15T07:50:49.632Z,7.50
2019-05-15T07:53:20.093Z,6.33
2019-05-15T07:55:50.960Z,8.03
2019-05-15T07:58:21.750Z,5.50
2019-05-15T08:00:50.798Z,6.47
2019-05-15T08:03:19.787Z,5.77
2019-05-15T08:05:58.273Z,6.57
2019-05-15T08:08:19.208Z,6.50
2019-05-15T08:10:48.944Z,5.77
2019-05-15T08:13:18.888Z,5.87
2019-05-15T08:15:48.957Z,6.33
2019-05-15T08:18:19.585Z,6.13
2019-05-15T08:20:49.248Z,6.63
2019-05-15T08:23:19.524Z,6.17
2019-05-15T08:25:49.224Z,6.40
2019-05-15T08:28:19.118Z,6.50
2019-05-15T08:30:50.165Z,7.00
2019-05-15T08:33:19.887Z,6.57
2019-05-15T08:35:51.630Z,6.63
2019-05-15T08:38:19.311Z,5.43
2019-05-15T08:40:48.874Z,5.77
2019-05-15T08:43:19.658Z,6.23
2019-05-15T08:45:49.630Z,5.80
2019-05-15T08:48:19.081Z,4.90
2019-05-15T08:50:49.045Z,6.00
2019-05-15T08:53:19.730Z,5.50
2019-05-15T08:55:50.779Z,4.50
2019-05-15T08:58:20.518Z,4.83
2019-05-15T09:00:52.464Z,4.90
2019-05-15T09:03:20.918Z,4.80
2019-05-15T09:05:49.810Z,4.83
2019-05-15T09:08:19.733Z,4.77
2019-05-15T09:10:50.376Z,4.67
2019-05-15T09:13:19.759Z,4.27
2019-05-15T09:15:50.085Z,4.57
2019-05-15T09:18:20.105Z,4.07
2019-05-15T09:20:50.189Z,4.80
2019-05-15T09:23:19.713Z,4.80
2019-05-15T09:25:49.861Z,4.47
2019-05-15T09:28:19.810Z,4.70
2019-05-15T09:30:49.626Z,4.70
2019-05-15T09:33:20.103Z,4.20
2019-05-15T09:35:49.314Z,3.73
2019-05-15T09:38:19.116Z,4.63
2019-05-15T09:40:51.216Z,4.37
2019-05-15T09:43:19.863Z,4.60
2019-05-15T09:45:49.776Z,4.10
2019-05-15T09:48:20.080Z,4.30
2019-05-15T09:50:49.924Z,4.10
2019-05-15T09:53:19.317Z,4.17
2019-05-15T09:55:49.924Z,3.97
2019-05-15T09:58:20.794Z,3.57
2019-05-15T10:00:52.967Z,3.50
2019-05-15T10:03:21.534Z,4.00
2019-05-15T10:05:50.426Z,3.73
2019-05-15T10:08:21.228Z,3.50
2019-05-15T10:10:49.971Z,3.83
2019-05-15T10:13:19.767Z,3.20
2019-05-15T10:15:51.115Z,3.17
2019-05-15T10:18:19.468Z,3.60
2019-05-15T10:20:49.095Z,3.40
2019-05-15T10:23:19.651Z,3.17
2019-05-15T10:25:48.792Z,3.60
2019-05-15T10:28:19.762Z,3.63
2019-05-15T10:30:50.019Z,2.83
2019-05-15T10:33:20.075Z,3.20
2019-05-15T10:35:49.613Z,3.00
2019-05-15T10:38:19.367Z,3.00
2019-05-15T10:41:04.027Z,3.00
2019-05-15T10:43:21.241Z,2.60
2019-05-15T10:45:50.402Z,3.33
2019-05-15T10:48:20.002Z,2.37
2019-05-15T10:50:49.004Z,2.20
2019-05-15T10:53:19.475Z,2.80
2019-05-15T10:55:49.494Z,3.00
2019-05-15T10:58:22.230Z,3.00
2019-05-15T11:00:49.801Z,2.40
2019-05-15T11:03:20.280Z,2.77
2019-05-15T11:05:49.917Z,2.87
2019-05-15T11:08:19.169Z,2.90
2019-05-15T11:10:49.597Z,2.80
2019-05-15T11:13:19.535Z,2.83
2019-05-15T11:15:49.488Z,3.23
2019-05-15T11:18:18.469Z,3.17
2019-05-15T11:20:48.658Z,3.10
2019-05-15T11:23:20.030Z,2.70
2019-05-15T11:25:49.339Z,2.70
2019-05-15T11:28:18.239Z,3.07
2019-05-15T11:30:48.905Z,3.50
2019-05-15T11:33:18.877Z,3.40
2019-05-15T11:35:57.880Z,3.50
2019-05-15T11:38:19.432Z,3.40
2019-05-15T11:40:49.236Z,3.40
2019-05-15T11:43:19.721Z,3.53
2019-05-15T11:45:49.271Z,3.80
2019-05-15T11:48:20.496Z,4.23
2019-05-15T11:50:48.690Z,3.33
2019-05-15T11:53:19.213Z,3.40
2019-05-15T11:55:48.258Z,3.57
2019-05-15T11:58:18.943Z,2.97
2019-05-15T12:00:49.114Z,3.57
2019-05-15T12:03:19.305Z,3.43
2019-05-15T12:05:48.921Z,3.40
2019-05-15T12:08:18.929Z,3.10
2019-05-15T12:10:47.809Z,3.60
2019-05-15T12:13:18.973Z,3.20
2019-05-15T12:15:48.492Z,3.40
2019-05-15T12:18:17.566Z,3.40
2019-05-15T12:20:48.580Z,3.60
2019-05-15T12:23:17.071Z,3.20
2019-05-15T12:25:48.537Z,3.30
2019-05-15T12:28:16.594Z,3.40
2019-05-15T12:30:45.486Z,3.57
2019-05-15T12:33:14.378Z,7.10
2019-05-15T12:35:43.378Z,4.07
2019-05-15T12:38:12.362Z,4.20
2019-05-15T13:00:45.488Z,3.00
2019-05-15T13:03:14.378Z,2.80
2019-05-15T13:05:43.370Z,2.53
2019-05-15T13:08:12.262Z,2.80
2019-05-15T13:10:41.261Z,2.20
2019-05-15T13:13:10.247Z,2.60
2019-05-15T13:15:40.919Z,2.63
2019-05-15T13:18:14.147Z,2.47
2019-05-15T13:20:40.250Z,2.47
2019-05-15T13:23:09.907Z,2.53
2019-05-15T13:25:39.637Z,2.67
2019-05-15T13:28:09.326Z,2.60
2019-05-15T13:30:41.318Z,2.63
2019-05-15T13:33:09.927Z,3.03
2019-05-15T13:35:39.278Z,2.80
2019-05-15T13:38:10.068Z,2.50
2019-05-15T13:40:42.106Z,2.20
2019-05-15T13:43:09.225Z,2.00
2019-05-15T13:45:38.634Z,3.20
2019-05-15T13:48:10.489Z,2.17
2019-05-15T13:50:40.383Z,2.47
2019-05-15T13:53:11.052Z,2.33
2019-05-15T13:55:42.850Z,2.40
2019-05-15T13:58:11.177Z,2.40
2019-05-15T14:00:40.269Z,2.23
2019-05-15T14:03:09.488Z,2.13
2019-05-15T14:05:39.072Z,2.60
2019-05-15T14:08:08.069Z,2.57
2019-05-15T14:10:38.674Z,2.30
2019-05-15T14:13:07.694Z,2.67
2019-05-15T14:15:38.331Z,2.27
2019-05-15T14:18:08.567Z,2.20
2019-05-15T14:20:38.770Z,2.07
2019-05-15T14:23:08.822Z,2.23
2019-05-15T14:25:38.840Z,2.10
2019-05-15T14:28:09.081Z,2.03
2019-05-15T14:30:38.134Z,2.30
2019-05-15T14:33:08.479Z,1.77
2019-05-15T14:35:37.921Z,2.30
2019-05-15T14:38:10.150Z,2.27
2019-05-15T14:40:37.573Z,1.93
2019-05-15T14:43:08.932Z,1.87
2019-05-15T14:45:38.869Z,1.87
2019-05-15T14:48:08.904Z,1.93
2019-05-15T14:50:38.454Z,1.90
2019-05-15T14:53:09.534Z,2.20
2019-05-15T14:55:43.844Z,2.63
2019-05-15T14:58:10.049Z,2.00
2019-05-15T15:00:41.595Z,2.10
2019-05-15T15:03:10.011Z,2.60
2019-05-15T15:05:39.997Z,1.83
2019-05-15T15:08:18.549Z,2.07
2019-05-15T15:10:39.394Z,2.30
2019-05-15T15:13:09.453Z,2.20
2019-05-15T15:15:38.839Z,2.00
2019-05-15T15:18:09.371Z,2.60
2019-05-15T15:20:38.362Z,2.13
2019-05-15T15:23:08.462Z,2.40
2019-05-15T15:25:39.820Z,2.30
2019-05-15T15:28:08.614Z,2.27
2019-05-15T15:30:38.641Z,2.30
2019-05-15T15:33:08.653Z,2.57
2019-05-15T15:35:38.519Z,3.23
2019-05-15T15:38:13.281Z,3.90
2019-05-15T15:40:38.951Z,3.20
2019-05-15T15:43:09.633Z,2.90
2019-05-15T15:45:39.333Z,2.60
2019-05-15T15:48:09.665Z,2.70
2019-05-15T15:50:38.729Z,2.23
2019-05-15T15:53:08.933Z,2.70
2019-05-15T15:55:38.929Z,2.40
2019-05-15T15:58:10.296Z,2.50
2019-05-15T16:00:38.968Z,2.20
2019-05-15T16:03:08.457Z,2.33
2019-05-15T16:05:38.426Z,2.07
2019-05-15T16:08:08.500Z,2.13
2019-05-15T16:10:38.176Z,1.97
2019-05-15T16:13:09.192Z,2.17
2019-05-15T16:15:38.452Z,2.13
2019-05-15T16:18:08.835Z,1.90
2019-05-15T16:20:39.642Z,1.80
2019-05-15T16:23:08.729Z,2.20
2019-05-15T16:25:38.522Z,2.30
2019-05-15T16:28:08.809Z,1.50
2019-05-15T16:30:50.739Z,1.80
2019-05-15T16:33:09.515Z,1.53
2019-05-15T16:35:38.827Z,1.87
2019-05-15T16:38:09.315Z,2.10
2019-05-15T16:40:38.432Z,1.57
2019-05-15T16:43:07.369Z,1.83
2019-05-15T16:45:38.493Z,1.87
2019-05-15T16:48:09.265Z,1.67
2019-05-15T16:50:38.116Z,1.80
2019-05-15T16:53:09.209Z,1.97
2019-05-15T16:55:37.903Z,1.67
2019-05-15T16:58:09.156Z,1.67
2019-05-15T17:00:38.473Z,1.90
2019-05-15T17:03:14.390Z,1.67
2019-05-15T17:05:38.766Z,1.77
2019-05-15T17:08:09.046Z,1.90
2019-05-15T17:10:38.907Z,1.60
2019-05-15T17:13:08.772Z,1.50
2019-05-15T17:15:38.445Z,1.93
2019-05-15T17:18:08.973Z,1.90
2019-05-15T17:20:37.947Z,1.40
2019-05-15T17:23:08.635Z,1.80
2019-05-15T17:25:38.209Z,1.47
2019-05-15T17:28:09.116Z,1.70
2019-05-15T17:30:38.224Z,1.73
2019-05-15T17:33:07.354Z,1.53
2019-05-15T17:35:38.121Z,1.50
2019-05-15T17:38:07.058Z,1.77
2019-05-15T17:40:37.783Z,1.10
2019-05-15T17:43:09.210Z,1.40
2019-05-15T17:45:38.998Z,1.60
2019-05-15T17:48:08.629Z,1.80
2019-05-15T17:50:48.560Z,1.97
2019-05-15T17:53:09.007Z,1.80
2019-05-15T17:55:38.812Z,1.30
2019-05-15T17:58:09.270Z,2.20
2019-05-15T18:00:39.493Z,1.57
2019-05-15T18:03:08.751Z,1.43
2019-05-15T18:05:39.121Z,1.60
2019-05-15T18:08:08.923Z,1.40
2019-05-15T18:10:38.838Z,1.50
2019-05-15T18:13:08.886Z,1.20
2019-05-15T18:15:38.681Z,1.00
2019-05-15T18:18:09.413Z,1.13
2019-05-15T18:20:38.518Z,1.30
2019-05-15T18:23:08.417Z,1.70
2019-05-15T18:25:40.683Z,1.57
2019-05-15T18:28:11.681Z,1.80
2019-05-15T18:30:41.108Z,1.30
2019-05-15T18:33:10.072Z,1.00
2019-05-15T18:35:39.043Z,1.10
2019-05-15T18:38:08.544Z,1.30
2019-05-15T18:40:38.428Z,1.40
2019-05-15T18:43:10.058Z,1.20
2019-05-15T18:45:38.470Z,1.13
2019-05-15T18:48:07.333Z,1.20
2019-05-15T18:50:37.803Z,1.60
2019-05-15T18:53:08.943Z,1.03
2019-05-15T18:55:38.569Z,1.30
2019-05-15T18:58:08.774Z,1.30
2019-05-15T19:00:39.942Z,1.20
2019-05-15T19:03:18.761Z,1.03
2019-05-15T19:05:39.008Z,1.33
2019-05-15T19:08:08.377Z,0.83
2019-05-15T19:10:38.585Z,1.20
2019-05-15T19:13:08.653Z,1.30
2019-05-15T19:15:45.240Z,1.10
2019-05-15T19:18:14.147Z,1.17
2019-05-15T19:20:42.991Z,1.10
2019-05-15T19:23:11.976Z,1.07
2019-05-15T19:25:40.924Z,1.33
2019-05-15T19:28:09.756Z,1.20
2019-05-15T19:30:39.023Z,1.20
2019-05-15T19:33:07.992Z,1.27
2019-05-15T19:35:38.721Z,0.70
2019-05-15T19:38:07.371Z,1.17
2019-05-15T19:40:38.819Z,0.83
2019-05-15T19:43:09.078Z,0.90
2019-05-15T19:45:38.718Z,1.20
2019-05-15T19:48:08.967Z,1.07
2019-05-15T19:50:37.909Z,1.00
2019-05-15T19:53:08.188Z,1.00
2019-05-15T19:55:37.147Z,1.43
2019-05-15T19:58:06.004Z,1.17
2019-05-15T20:00:34.981Z,1.03
2019-05-15T20:03:03.820Z,0.90
2019-05-15T20:05:32.668Z,1.03
2019-05-15T20:08:01.544Z,1.13
2019-05-15T20:10:30.388Z,1.13
2019-05-15T20:13:00.428Z,0.97
2019-05-15T20:15:29.332Z,1.10
2019-05-15T20:17:58.571Z,1.10
2019-05-15T20:20:28.416Z,1.27
2019-05-15T20:22:59.937Z,0.87
2019-05-15T20:25:28.028Z,1.00
2019-05-15T20:27:56.918Z,0.90
2019-05-15T20:30:28.412Z,1.50
2019-05-15T20:32:58.368Z,1.00
2019-05-15T20:35:28.201Z,1.17
2019-05-15T20:37:58.143Z,0.93
2019-05-15T20:40:27.922Z,1.30
2019-05-15T20:42:59.090Z,0.97
2019-05-15T20:45:29.192Z,1.00
2019-05-15T20:47:58.613Z,1.00
2019-05-15T20:50:28.346Z,1.00
2019-05-15T20:52:58.880Z,1.00
2019-05-15T20:55:28.176Z,0.80
2019-05-15T20:57:58.613Z,1.03
2019-05-15T21:00:28.109Z,0.77
2019-05-15T21:02:57.893Z,1.50
2019-05-15T21:05:27.882Z,1.07
2019-05-15T21:07:58.160Z,1.00
2019-05-15T21:10:27.054Z,0.90
2019-05-15T21:12:55.912Z,1.00
2019-05-15T21:15:24.833Z,1.10
2019-05-15T21:17:58.589Z,1.10
2019-05-15T21:20:24.355Z,1.00
2019-05-15T21:22:53.247Z,0.90
2019-05-15T21:25:23.572Z,0.80
2019-05-15T21:27:53.312Z,0.80
2019-05-15T21:30:22.165Z,0.90
2019-05-15T21:32:51.677Z,0.93
2019-05-15T21:35:20.773Z,0.97
2019-05-15T21:37:50.174Z,0.90
2019-05-15T21:40:19.067Z,1.27
2019-05-15T21:42:49.438Z,1.00
2019-05-15T21:45:19.099Z,1.40
2019-05-15T21:47:47.991Z,0.93
2019-05-15T21:50:19.304Z,1.33
2019-05-15T21:52:49.599Z,1.00
2019-05-15T21:55:19.171Z,1.13
2019-05-15T21:57:48.060Z,1.07
2019-05-15T22:00:28.910Z,1.10
2019-05-15T22:02:58.960Z,1.30
2019-05-15T22:05:29.754Z,1.47
2019-05-15T22:08:00.096Z,1.00
2019-05-15T22:10:29.614Z,1.10
2019-05-15T22:12:59.325Z,1.30
2019-05-15T22:15:30.684Z,1.03
2019-05-15T22:17:59.670Z,1.10
2019-05-15T22:20:30.499Z,1.33
2019-05-15T22:22:59.847Z,1.20
2019-05-15T22:25:28.788Z,1.07
2019-05-15T22:27:58.609Z,1.20
2019-05-15T22:30:30.270Z,1.00
2019-05-15T22:32:58.922Z,1.30
2019-05-15T22:35:29.484Z,1.07
2019-05-15T22:37:58.985Z,0.93
2019-05-15T22:40:28.949Z,0.90
2019-05-15T22:42:59.294Z,1.03
2019-05-15T22:45:28.934Z,1.10
2019-05-15T22:47:58.574Z,1.30
2019-05-15T22:50:28.411Z,1.27
2019-05-15T22:52:58.683Z,1.00
2019-05-15T22:55:48.443Z,0.90
2019-05-15T22:58:18.177Z,1.10
2019-05-15T23:00:49.048Z,0.90
2019-05-15T23:03:19.001Z,1.00
2019-05-15T23:05:48.232Z,0.70
2019-05-15T23:08:18.426Z,0.80
2019-05-15T23:10:48.600Z,0.67
2019-05-15T23:13:17.966Z,0.93
2019-05-15T23:15:47.744Z,0.73
2019-05-15T23:18:17.886Z,1.03
2019-05-15T23:20:47.869Z,0.90
2019-05-15T23:23:18.110Z,0.80
2019-05-15T23:25:48.576Z,0.83
2019-05-15T23:28:18.073Z,0.63
2019-05-15T23:30:48.510Z,0.87
2019-05-15T23:33:18.842Z,0.90
2019-05-15T23:35:48.541Z,0.70
2019-05-15T23:38:18.342Z,0.80
2019-05-15T23:40:48.328Z,1.00
2019-05-15T23:43:18.931Z,0.80
2019-05-15T23:45:48.473Z,1.00
2019-05-15T23:48:18.003Z,0.87
2019-05-15T23:50:48.633Z,1.00
2019-05-15T23:53:19.578Z,0.80
2019-05-15T23:55:47.952Z,1.10
2019-05-15T23:58:18.974Z,1.10
